Latest Coastal Weather Observations for Cape Nelson

IDS60701

Issued at 4:01 am CST Saturday 4 July 2015 (issued every 10 minutes, with the page automatically refreshed every 10 minutes)

About coastal observations | Map of coastal stations | Coastal observations for SA | Marine services | Other Formats
Station Details ID: 090184 Name: CAPE NELSON LIGHTHOUSE Lat: -38.43 Lon: 141.54 Height: 45.4 m
Data from the previous 72 hours. | See also: Recent months at Cape Nelson
Date/Time
CST
Temp

°C
Wind Pressure Rain
since 9am
mm
Weather Cloud Vis
km
Sea
Height
m
Swell
Dir
 
Speed
knots
Gust
knots
hPa Trend Height
m
Period
s
Dir
04/04:00am 9.9 NW 16 23 1020.4 - 0.0 - - - - - - -
04/03:30am 10.1 NNW 18 24 1020.4 - 0.0 - - - - - - -
04/03:00am 10.1 NW 18 25 1020.7 - 0.0 - - - - - - -
04/02:30am 10.1 NW 16 25 1020.9 - 0.0 - - - - - - -
04/02:00am 9.9 NW 17 26 1020.8 - 0.0 - - - - - - -
04/01:35am 9.7 NW 18 28 1020.9 - 0.0 - - - - - - -
04/01:30am 9.7 NW 17 23 1020.9 - 0.0 - - - - - - -
04/01:00am 9.7 NNW 15 23 1021.3 - 0.0 - - - - - - -
04/12:30am 9.6 NNW 18 25 1021.4 - 0.0 - - - - - - -
04/12:00am 10.0 NW 16 24 1021.8 - 0.0 - - - - - - -
 
Date/Time
CST
Temp

°C
Wind Pressure Rain
since 9am
mm
Weather Cloud Vis
km
Sea
Height
m
Swell
Dir
 
Speed
knots
Gust
knots
hPa Trend Height
m
Period
s
Dir
03/11:30pm 10.1 NW 18 24 1022.1 - 0.0 - - - - - - -
03/11:00pm 9.8 NW 16 23 1022.2 - 0.0 - - - - - - -
03/10:42pm 9.8 NNW 17 27 1022.2 - 0.0 - - - - - - -
03/10:30pm 9.8 NW 20 28 1022.3 - 0.0 - - - - - - -
03/10:14pm 9.8 NW 18 28 1022.6 - 0.0 - - - - - - -
03/10:00pm 9.7 NW 18 27 1022.8 - 0.0 - - - - - - -
03/09:58pm 9.7 NW 17 27 1022.8 - 0.0 - - - - - - -
03/09:30pm 9.6 NW 17 25 1023.0 - 0.0 - - - - - - -
03/09:17pm 9.6 NW 15 26 1023.1 - 0.0 - - - - - - -
03/09:00pm 9.5 NW 15 21 1023.3 - 0.0 - - - - - - -
03/08:30pm 9.1 NNW 12 18 1023.6 - 0.0 - - - - - - -
03/08:00pm 8.9 NNW 11 16 1023.7 - 0.0 - - - - - - -
03/07:30pm 8.9 NNW 13 19 1023.9 - 0.0 - - - - - - -
03/07:00pm 8.9 NNW 12 18 1024.0 - 0.0 - - - - - - -
03/06:30pm 8.9 NNW 12 18 1024.3 - 0.0 - - - - - - -
03/06:00pm 8.8 NNW 12 17 1024.1 - 0.0 - - - - - - -
03/05:30pm 9.1 NNW 13 19 1024.1 - 0.0 - - - - - - -
03/05:00pm 9.2 NNW 14 19 1024.0 - 0.0 - - - - - - -
03/04:30pm 9.3 NNW 12 19 1024.3 - 0.0 - - - - - - -
03/04:00pm 9.6 NNW 13 19 1024.5 - 0.0 - - - - - - -
03/03:30pm 10.0 NNW 12 18 1024.7 - 0.0 - - - - - - -
03/03:00pm 10.5 NW 12 18 1025.0 - 0.0 - - - - - - -
03/02:30pm 11.1 NNW 10 14 1025.0 - 0.0 - - - - - - -
03/02:00pm 10.8 NNW 9 14 1025.1 - 0.0 - - - - - - -
03/01:30pm 10.6 NNW 9 12 1025.6 - 0.0 - - - - - - -
03/01:00pm 10.7 NNW 9 14 1025.9 - 0.0 - - - - - - -
03/12:30pm 10.6 NNW 10 15 1026.4 - 0.0 - - - - - - -
03/12:00pm 10.4 NNW 10 14 1026.8 - 0.0 - - - - - - -
03/11:30am 10.1 NNW 11 16 1027.4 - 0.0 - - - - - - -
03/11:00am 9.7 NNW 9 13 1027.8 - 0.0 - - - - - - -
03/10:30am 9.2 NNW 10 14 1028.0 - 0.0 - - - - - - -
03/10:00am 8.9 NNW 10 13 1027.9 - 0.0 - - - - - - -
03/09:30am 8.6 NNW 8 10 1028.0 - 0.0 - - - - - - -
03/09:00am 8.4 NNW 8 12 1028.1 - 0.0 - - - - - - -
03/08:30am 8.1 NNW 7 10 1028.2 - 0.0 - - - - - - -
03/08:00am 7.7 NNW 8 12 1028.3 - 0.0 - - - - - - -
03/07:30am 7.5 N 7 10 1028.3 - 0.0 - - - - - - -
03/07:00am 7.8 N 6 8 1028.4 - 0.0 - - - - - - -
03/06:30am 8.0 N 7 8 1028.3 - 0.0 - - - - - - -
03/06:00am 8.0 NNW 7 9 1028.1 - 0.0 - - - - - - -
03/05:30am 8.0 NNW 5 7 1027.8 - 0.0 - - - - - - -
03/05:00am 8.3 NNW 7 10 1027.9 - 0.0 - - - - - - -
03/04:30am 9.5 NNW 6 10 1028.0 - 0.0 - - - - - - -
03/04:00am 9.5 NNW 7 12 1028.0 - 0.0 - - - - - - -
03/03:30am 9.6 SE 5 8 1028.2 - 0.0 - - - - - - -
03/03:00am 9.9 SSE 6 9 1028.5 - 0.0 - - - - - - -
03/02:30am 9.7 NW 7 12 1028.6 - 0.0 - - - - - - -
03/02:00am 9.3 E 4 7 1028.7 - 0.0 - - - - - - -
03/01:30am 9.4 E 5 9 1028.7 - 0.0 - - - - - - -
03/01:00am 9.4 S 5 8 1028.8 - 0.0 - - - - - - -
03/12:30am 9.7 WNW 4 7 1029.1 - 0.0 - - - - - - -
03/12:00am 9.9 W 5 9 1029.4 - 0.0 - - - - - - -
 
Date/Time
CST
Temp

°C
Wind Pressure Rain
since 9am
mm
Weather Cloud Vis
km
Sea
Height
m
Swell
Dir
 
Speed
knots
Gust
knots
hPa Trend Height
m
Period
s
Dir
02/11:30pm 9.7 S 8 11 1029.7 - 0.0 - - - - - - -
02/11:00pm 10.1 S 7 11 1029.8 - 0.0 - - - - - - -
02/10:30pm 10.0 ESE 6 11 1029.8 - 0.0 - - - - - - -
02/10:00pm 9.8 S 8 11 1029.8 - 0.0 - - - - - - -
02/09:30pm 10.0 S 10 15 1029.8 - 0.0 - - - - - - -
02/09:00pm 10.1 S 12 16 1029.8 - 0.0 - - - - - - -
02/08:30pm 10.4 S 10 14 1029.6 - 0.0 - - - - - - -
02/08:00pm 10.4 S 11 16 1029.6 - 0.0 - - - - - - -
02/07:30pm 9.6 N 6 10 1029.4 - 0.0 - - - - - - -
02/07:00pm 10.0 NW 5 12 1029.2 - 0.0 - - - - - - -
02/06:30pm 10.0 NW 9 16 1029.0 - 0.0 - - - - - - -
02/06:00pm 10.1 S 11 18 1029.0 - 0.0 - - - - - - -
02/05:30pm 10.5 S 12 17 1028.6 - 0.0 - - - - - - -
02/05:00pm 10.4 S 13 19 1028.4 - 0.0 - - - - - - -
02/04:30pm 10.6 S 14 19 1028.2 - 0.0 - - - - - - -
02/04:00pm 10.6 S 13 18 1028.0 - 0.0 - - - - - - -
02/03:30pm 11.0 S 13 19 1027.9 - 0.0 - - - - - - -
02/03:00pm 11.0 S 12 20 1027.7 - 0.0 - - - - - - -
02/02:30pm 11.5 S 8 16 1027.3 - 0.0 - - - - - - -
02/02:00pm 10.8 S 14 21 1027.0 - 0.0 - - - - - - -
02/01:30pm 11.0 S 16 22 1026.9 - 0.0 - - - - - - -
02/01:00pm 11.4 S 16 22 1026.8 - 0.0 - - - - - - -
02/12:30pm 11.2 S 17 23 1026.8 - 0.0 - - - - - - -
02/12:00pm 11.0 S 19 25 1026.9 - 0.0 - - - - - - -
02/11:50am 11.1 S 17 27 1026.8 - 0.0 - - - - - - -
02/11:30am 10.6 S 18 25 1026.7 - 0.0 - - - - - - -
02/11:00am 10.8 S 20 28 1026.5 - 0.0 - - - - - - -
02/10:30am 10.8 S 21 30 1026.4 - 0.0 - - - - - - -
02/10:00am 10.9 S 15 27 1025.7 - 0.0 - - - - - - -
02/09:30am 10.9 S 15 31 1025.2 - 0.0 - - - - - - -
02/09:00am 11.2 S 16 28 1024.6 - 0.0 - - - - - - -
02/08:30am 10.7 S 16 27 1024.3 - 3.2 - - - - - - -
02/08:00am 10.6 S 17 30 1023.9 - 3.2 - - - - - - -
02/07:30am 9.7 S 18 29 1023.5 - 3.2 - - - - - - -
02/07:10am 9.7 N 14 30 1022.6 - 3.2 - - - - - - -
02/07:00am 9.8 SSE 18 31 1022.8 - 3.0 - - - - - - -
02/06:32am 11.4 NNE 15 29 1021.4 - 2.6 - - - - - - -
02/06:30am 11.8 N 15 26 1021.6 - 2.6 - - - - - - -
02/06:00am 11.6 NW 17 33 1021.2 - 2.6 - - - - - - -
02/05:48am 11.5 W 23 35 1020.8 - 2.6 - - - - - - -
02/05:40am 11.5 W 27 37 1021.2 - 2.6 - - - - - - -
02/05:30am 11.0 W 29 39 1021.0 - 2.6 - - - - - - -
02/05:29am 10.8 W 28 39 1021.0 - 2.6 - - - - - - -
02/05:00am 11.9 WNW 21 35 1020.7 - 2.6 - - - - - - -
02/04:51am 12.0 NW 16 26 1020.5 - 2.6 - - - - - - -
02/04:44am 11.9 WNW 18 29 1020.3 - 2.6 - - - - - - -
02/04:30am 11.9 W 25 35 1020.6 - 2.6 - - - - - - -
02/04:00am 11.7 WNW 20 31 1020.3 - 2.6 - - - - - - -
02/03:58am 11.7 WNW 19 29 1020.0 - 2.6 - - - - - - -
02/03:54am 11.7 WNW 18 27 1020.3 - 2.6 - - - - - - -
02/03:36am 10.9 NW 15 25 1020.0 - 2.6 - - - - - - -
02/03:30am 10.7 NW 15 24 1019.9 - 2.6 - - - - - - -
02/03:00am 12.3 W 19 31 1020.3 - 2.2 - - - - - - -
02/02:46am 12.2 WNW 16 25 1020.2 - 2.2 - - - - - - -
02/02:39am 12.3 W 21 31 1020.3 - 2.2 - - - - - - -
02/02:30am 12.2 W 24 30 1020.5 - 2.2 - - - - - - -
02/02:06am 11.9 W 25 35 1020.1 - 2.2 - - - - - - -
02/02:00am 12.0 W 28 35 1020.1 - 2.2 - - - - - - -
02/01:34am 11.9 W 20 30 1020.0 - 2.2 - - - - - - -
02/01:30am 11.9 W 20 28 1020.0 - 2.2 - - - - - - -
02/01:00am 12.0 WNW 17 28 1019.8 - 2.2 - - - - - - -
02/12:36am 11.9 WNW 17 26 1019.7 - 2.2 - - - - - - -
02/12:33am 12.3 WNW 18 31 1019.7 - 2.2 - - - - - - -
02/12:30am 12.3 W 20 31 1019.8 - 2.2 - - - - - - -
02/12:07am 12.5 WNW 20 31 1019.9 - 2.2 - - - - - - -
02/12:00am 12.2 NW 16 29 1019.7 - 2.2 - - - - - - -
 
Date/Time
CST
Temp

°C
Wind Pressure Rain
since 9am
mm
Weather Cloud Vis
km
Sea
Height
m
Swell
Dir
 
Speed
knots
Gust
knots
hPa Trend Height
m
Period
s
Dir
01/11:55pm 12.6 WNW 21 32 1019.6 - 2.2 - - - - - - -
01/11:33pm 12.6 W 22 32 1019.6 - 2.2 - - - - - - -
01/11:30pm 13.2 WNW 21 29 1019.6 - 2.2 - - - - - - -
01/11:00pm 12.9 W 26 36 1019.8 - 2.2 - - - - - - -
01/10:31pm 12.8 W 24 34 1019.2 - 2.2 - - - - - - -
01/10:30pm 12.6 W 25 34 1019.2 - 2.2 - - - - - - -
01/10:00pm 13.9 WNW 23 33 1019.0 - 0.2 - - - - - - -
01/09:32pm 14.0 WNW 22 32 1019.4 - 0.2 - - - - - - -
01/09:30pm 13.9 WNW 23 32 1019.4 - 0.2 - - - - - - -
01/09:00pm 14.0 WNW 23 32 1019.7 - 0.2 - - - - - - -
01/08:42pm 14.0 WNW 23 33 1020.0 - 0.2 - - - - - - -
01/08:30pm 14.0 WNW 24 32 1020.0 - 0.2 - - - - - - -
01/08:00pm 14.0 WNW 21 30 1020.1 - 0.2 - - - - - - -
01/07:44pm 14.1 WNW 21 31 1020.2 - 0.2 - - - - - - -
01/07:30pm 14.0 WNW 23 31 1020.3 - 0.2 - - - - - - -
01/07:05pm 13.9 WNW 21 31 1020.3 - 0.2 - - - - - - -
01/07:00pm 13.9 WNW 23 32 1020.3 - 0.2 - - - - - - -
01/06:30pm 13.8 WNW 23 34 1020.2 - 0.2 - - - - - - -
01/06:06pm 13.4 WNW 21 31 1020.2 - 0.2 - - - - - - -
01/06:00pm 13.6 WNW 22 31 1020.2 - 0.2 - - - - - - -
01/05:47pm 13.6 WNW 22 32 1020.3 - 0.2 - - - - - - -
01/05:30pm 13.6 WNW 22 29 1020.2 - 0.2 - - - - - - -
01/05:00pm 13.8 WNW 23 33 1020.6 - 0.2 - - - - - - -
01/04:30pm 13.6 WNW 22 29 1020.5 - 0.2 - - - - - - -
01/04:05pm 13.3 WNW 20 30 1020.6 - 0.2 - - - - - - -
01/04:00pm 13.1 NW 18 26 1020.7 - 0.2 - - - - - - -
01/03:30pm 13.4 NW 22 29 1020.8 - 0.2 - - - - - - -
01/03:08pm 13.1 NW 21 31 1021.0 - 0.2 - - - - - - -
01/03:00pm 12.9 NW 19 27 1021.1 - 0.2 - - - - - - -
01/02:30pm 13.4 NW 19 26 1021.4 - 0.2 - - - - - - -
01/02:03pm 13.4 NW 19 29 1021.4 - 0.2 - - - - - - -
01/02:00pm 13.4 NW 20 29 1021.4 - 0.2 - - - - - - -
01/01:33pm 13.2 NW 20 30 1021.9 - 0.2 - - - - - - -
01/01:30pm 12.9 NW 21 30 1021.9 - 0.2 - - - - - - -
01/01:26pm 12.6 NW 20 30 1021.9 - 0.2 - - - - - - -
01/01:00pm 12.6 NW 16 23 1022.6 - 0.0 - - - - - - -
01/12:47pm 13.3 NW 20 30 1022.8 - 0.0 - - - - - - -
01/12:30pm 13.6 NW 21 29 1022.9 - 0.0 - - - - - - -
01/12:21pm 13.8 NW 19 29 1023.2 - 0.0 - - - - - - -
01/12:00pm 14.4 NW 19 26 1023.5 - 0.0 - - - - - - -
01/11:30am 14.0 NW 17 23 1024.0 - 0.0 - - - - - - -
01/11:00am 13.1 NW 17 24 1024.7 - 0.0 - - - - - - -
01/10:30am 12.3 NW 16 20 1025.2 - 0.0 - - - - - - -
01/10:00am 11.6 NW 11 17 1025.5 - 0.0 - - - - - - -
01/09:30am 10.7 NNW 13 20 1025.6 - 0.0 - - - - - - -
01/09:00am 10.0 NNW 14 20 1026.0 - 0.0 - - - - - - -
01/08:30am 9.2 NNW 12 17 1026.2 - 1.0 - - - - - - -
01/08:00am 9.2 NNW 12 20 1026.3 - 1.0 - - - - - - -
01/07:30am 9.2 NNW 13 18 1026.4 - 1.0 - - - - - - -
01/07:00am 8.2 NNW 12 18 1026.4 - 1.0 - - - - - - -
01/06:30am 8.8 NNW 13 19 1026.2 - 1.0 - - - - - - -
01/06:00am 9.2 NNW 10 14 1026.1 - 1.0 - - - - - - -
01/05:30am 9.7 NNW 9 13 1026.2 - 1.0 - - - - - - -
01/05:00am 9.4 NNW 7 11 1026.3 - 1.0 - - - - - - -
01/04:30am 9.5 NNW 9 12 1026.5 - 1.0 - - - - - - -
01/04:00am 9.3 NNW 9 12 1026.5 - 1.0 - - - - - - -

Other Formats:

Comma delimited format used in spreadsheet applications
http://www.bom.gov.au/fwo/IDS60701/IDS60701.94826.axf

JavaScript Object Notation format (JSON) in row-major order
http://www.bom.gov.au/fwo/IDS60701/IDS60701.94826.json